createdAt,value
2022-08-23T00:02:26.476Z,21.61
2022-08-23T00:05:08.381Z,21.61
2022-08-23T00:07:43.519Z,21.72
2022-08-23T00:10:13.575Z,21.75
2022-08-23T00:12:41.795Z,21.75
2022-08-23T00:15:11.144Z,21.74
2022-08-23T00:17:39.452Z,21.76
2022-08-23T00:20:08.180Z,21.76
2022-08-23T00:22:35.855Z,21.72
2022-08-23T00:25:02.556Z,21.72
2022-08-23T00:27:29.194Z,21.74
2022-08-23T00:29:57.318Z,21.75
2022-08-23T00:32:33.991Z,21.71
2022-08-23T00:35:01.583Z,21.47
2022-08-23T00:37:32.360Z,21.43
2022-08-23T00:40:00.180Z,21.34
2022-08-23T00:43:12.643Z,21.24
2022-08-23T00:46:22.730Z,21.26
2022-08-23T00:48:50.581Z,21.22
2022-08-23T00:51:23.628Z,21.22
2022-08-23T00:53:55.505Z,21.19
2022-08-23T00:56:25.204Z,21.10
2022-08-23T00:58:54.519Z,21.16
2022-08-23T01:01:24.450Z,21.17
2022-08-23T01:04:04.074Z,21.18
2022-08-23T01:06:44.428Z,21.23
2022-08-23T01:09:19.255Z,21.27
2022-08-23T01:11:52.453Z,21.33
2022-08-23T01:14:33.951Z,21.19
2022-08-23T01:17:08.531Z,21.05
2022-08-23T01:19:47.992Z,20.95
2022-08-23T01:22:26.749Z,20.88
2022-08-23T01:25:07.007Z,20.79
2022-08-23T01:27:39.697Z,20.72
2022-08-23T01:30:10.129Z,20.67
2022-08-23T01:32:47.810Z,20.67
2022-08-23T01:35:15.163Z,20.47
2022-08-23T01:37:42.428Z,20.51
2022-08-23T01:40:09.820Z,20.64
2022-08-23T01:42:36.632Z,20.65
2022-08-23T01:45:04.163Z,20.50
2022-08-23T01:47:31.853Z,20.51
2022-08-23T01:49:59.410Z,20.42
2022-08-23T01:52:26.165Z,20.42
2022-08-23T01:54:53.220Z,20.20
2022-08-23T01:57:20.292Z,20.09
2022-08-23T01:59:47.318Z,20.10
2022-08-23T02:02:14.950Z,20.13
2022-08-23T02:04:41.892Z,20.13
2022-08-23T02:07:08.632Z,20.14
2022-08-23T02:09:35.538Z,20.04
2022-08-23T02:12:03.490Z,20.08
2022-08-23T02:14:31.493Z,20.21
2022-08-23T02:17:04.046Z,20.12
2022-08-23T02:19:34.414Z,20.13
2022-08-23T02:22:03.239Z,20.05
2022-08-23T02:24:31.318Z,20.17
2022-08-23T02:27:02.554Z,20.19
2022-08-23T02:29:30.503Z,20.17
2022-08-23T02:32:00.242Z,20.16
2022-08-23T02:34:28.956Z,20.11
2022-08-23T02:36:56.134Z,19.84
2022-08-23T02:39:23.812Z,19.63
2022-08-23T02:41:51.878Z,19.68
2022-08-23T02:44:19.772Z,19.90
2022-08-23T02:46:47.393Z,19.96
2022-08-23T02:49:15.909Z,19.99
2022-08-23T02:51:43.111Z,19.91
2022-08-23T02:54:09.894Z,19.92
2022-08-23T02:56:36.728Z,19.95
2022-08-23T02:59:05.272Z,19.94
2022-08-23T03:01:36.633Z,20.00
2022-08-23T03:04:16.204Z,19.95
2022-08-23T03:06:42.911Z,19.90
2022-08-23T03:09:11.201Z,19.85
2022-08-23T03:11:38.277Z,19.76
2022-08-23T03:14:05.291Z,19.57
2022-08-23T03:16:32.283Z,19.56
2022-08-23T03:18:59.031Z,19.61
2022-08-23T03:21:25.625Z,19.75
2022-08-23T03:23:52.285Z,19.61
2022-08-23T03:26:19.753Z,19.42
2022-08-23T03:28:47.823Z,19.44
2022-08-23T03:34:03.079Z,19.43
2022-08-23T03:36:29.804Z,19.40
2022-08-23T03:38:58.442Z,19.35
2022-08-23T03:41:25.956Z,19.40
2022-08-23T03:43:52.898Z,19.46
2022-08-23T03:46:23.763Z,19.52
2022-08-23T03:49:00.266Z,19.56
2022-08-23T03:51:34.209Z,19.65
2022-08-23T03:54:02.086Z,19.59
2022-08-23T03:56:28.745Z,19.28
2022-08-23T03:58:57.008Z,19.33
2022-08-23T04:01:28.543Z,19.30
2022-08-23T04:03:58.337Z,19.26
2022-08-23T04:06:25.037Z,19.09
2022-08-23T04:08:54.598Z,18.80
2022-08-23T04:11:22.777Z,18.69
2022-08-23T04:13:56.520Z,18.81
2022-08-23T04:16:23.282Z,18.83
2022-08-23T04:18:49.990Z,18.87
2022-08-23T04:21:22.452Z,19.00
2022-08-23T04:23:49.748Z,19.12
2022-08-23T04:26:16.504Z,19.11
2022-08-23T04:28:44.597Z,19.11
2022-08-23T04:31:12.540Z,18.99
2022-08-23T04:33:42.405Z,18.80
2022-08-23T04:36:12.059Z,18.84
2022-08-23T04:38:39.439Z,18.80
2022-08-23T04:41:26.542Z,18.63
2022-08-23T04:43:56.280Z,18.78
2022-08-23T04:46:24.523Z,18.92
2022-08-23T04:48:54.026Z,18.75
2022-08-23T04:51:22.120Z,18.71
2022-08-23T04:53:48.834Z,18.49
2022-08-23T04:56:35.889Z,18.50
2022-08-23T04:59:03.251Z,18.66
2022-08-23T05:01:30.510Z,18.73
2022-08-23T05:03:57.500Z,18.72
2022-08-23T05:06:26.445Z,18.67
2022-08-23T05:08:53.361Z,18.71
2022-08-23T05:11:20.611Z,18.60
2022-08-23T05:13:48.607Z,18.65
2022-08-23T05:16:16.260Z,18.45
2022-08-23T05:18:51.629Z,18.32
2022-08-23T05:21:21.729Z,18.19
2022-08-23T05:23:50.721Z,18.07
2022-08-23T05:26:20.577Z,18.30
2022-08-23T05:28:48.961Z,18.40
2022-08-23T05:31:22.355Z,18.52
2022-08-23T05:33:55.554Z,18.50
2022-08-23T05:36:48.314Z,18.71
2022-08-23T05:39:36.458Z,18.62
2022-08-23T05:42:08.213Z,18.43
2022-08-23T05:44:36.392Z,18.47
2022-08-23T05:47:10.661Z,18.48
2022-08-23T05:49:47.541Z,18.71
2022-08-23T05:52:14.682Z,18.89
2022-08-23T05:54:43.355Z,19.08
2022-08-23T05:57:38.316Z,19.19
2022-08-23T06:00:10.465Z,19.24
2022-08-23T06:02:46.395Z,19.36
2022-08-23T06:05:13.911Z,19.42
2022-08-23T06:07:42.043Z,19.46
2022-08-23T06:10:09.821Z,19.49
2022-08-23T06:12:47.088Z,19.59
2022-08-23T06:15:14.907Z,19.59
2022-08-23T06:17:41.912Z,19.61
2022-08-23T06:20:10.324Z,19.78
2022-08-23T06:22:54.049Z,19.65
2022-08-23T06:25:20.743Z,19.60
2022-08-23T06:27:54.447Z,19.82
2022-08-23T06:30:23.299Z,20.09
2022-08-23T06:32:55.966Z,20.20
2022-08-23T06:35:38.911Z,20.41
2022-08-23T06:38:09.333Z,20.39
2022-08-23T06:40:48.037Z,20.53
2022-08-23T06:43:29.298Z,20.49
2022-08-23T06:46:23.605Z,20.51
2022-08-23T06:48:51.914Z,20.53
2022-08-23T06:51:29.109Z,20.59
2022-08-23T06:54:34.684Z,20.61
2022-08-23T06:57:32.738Z,20.94
2022-08-23T07:00:28.807Z,21.16
2022-08-23T07:03:15.842Z,21.38
2022-08-23T07:06:01.605Z,21.48
2022-08-23T07:08:31.278Z,21.53
2022-08-23T07:10:58.221Z,21.65
2022-08-23T07:13:25.189Z,21.83
2022-08-23T07:15:56.604Z,21.84
2022-08-23T07:18:23.624Z,21.99
2022-08-23T07:20:50.297Z,22.02
2022-08-23T07:23:17.540Z,22.15
2022-08-23T07:25:44.514Z,22.17
2022-08-23T07:28:15.350Z,22.23
2022-08-23T07:30:45.266Z,22.30
2022-08-23T07:33:13.141Z,22.35
2022-08-23T07:35:59.884Z,22.53
2022-08-23T07:38:30.604Z,22.61
2022-08-23T07:40:58.683Z,22.50
2022-08-23T07:43:25.651Z,22.56
2022-08-23T07:45:53.561Z,22.62
2022-08-23T07:48:43.346Z,22.85
2022-08-23T07:51:14.130Z,22.70
2022-08-23T07:53:45.810Z,22.70
2022-08-23T07:56:16.585Z,22.73
2022-08-23T07:59:05.719Z,22.87
2022-08-23T08:01:43.303Z,22.98
2022-08-23T08:04:11.412Z,23.02
2022-08-23T08:06:59.844Z,23.09
2022-08-23T08:09:33.630Z,23.11
2022-08-23T08:12:00.716Z,23.26
2022-08-23T08:14:30.306Z,23.25
2022-08-23T08:17:00.433Z,23.32
2022-08-23T08:19:47.366Z,23.57
2022-08-23T08:22:36.929Z,23.69
2022-08-23T08:25:18.964Z,23.78
2022-08-23T08:27:48.219Z,23.73
2022-08-23T08:30:14.923Z,23.74
2022-08-23T08:32:47.258Z,23.84
2022-08-23T08:35:14.443Z,23.90
2022-08-23T08:37:41.159Z,23.88
2022-08-23T08:40:09.210Z,24.04
2022-08-23T08:43:07.134Z,24.16
2022-08-23T08:46:13.653Z,24.16
2022-08-23T08:48:45.865Z,24.26
2022-08-23T08:51:43.894Z,24.41
2022-08-23T08:54:15.890Z,24.53
2022-08-23T08:56:51.285Z,24.53
2022-08-23T08:59:28.800Z,24.55
2022-08-23T09:01:57.563Z,24.61
2022-08-23T09:04:31.899Z,24.61
2022-08-23T09:07:07.240Z,24.71
2022-08-23T09:09:51.511Z,24.83
2022-08-23T09:13:03.646Z,24.80
2022-08-23T09:16:11.335Z,24.98
2022-08-23T09:18:38.275Z,25.01
2022-08-23T09:21:09.983Z,24.95
2022-08-23T09:24:00.154Z,25.00
2022-08-23T09:26:38.773Z,25.14
2022-08-23T09:29:20.866Z,25.14
2022-08-23T09:31:54.999Z,25.17
2022-08-23T09:34:36.059Z,25.22
2022-08-23T09:37:22.959Z,25.19
2022-08-23T09:39:54.207Z,25.38
2022-08-23T09:42:38.533Z,25.38
2022-08-23T09:45:35.445Z,25.41
2022-08-23T09:48:06.027Z,25.56
2022-08-23T09:50:42.132Z,25.49
2022-08-23T09:53:11.526Z,25.79
2022-08-23T09:55:42.526Z,25.94
2022-08-23T09:58:38.499Z,25.96
2022-08-23T10:01:16.410Z,25.78
2022-08-23T10:04:05.814Z,25.75
2022-08-23T10:06:35.911Z,26.04
2022-08-23T10:09:07.963Z,25.99
2022-08-23T10:11:46.788Z,26.01
2022-08-23T10:14:19.541Z,26.04
2022-08-23T10:17:15.784Z,26.17
2022-08-23T10:19:47.733Z,26.37
2022-08-23T10:22:28.503Z,26.50
2022-08-23T10:25:36.850Z,26.51
2022-08-23T10:28:44.776Z,26.62
2022-08-23T10:31:20.549Z,26.52
2022-08-23T10:33:59.274Z,26.56
2022-08-23T10:37:07.571Z,26.66
2022-08-23T10:39:43.996Z,26.58
2022-08-23T10:42:25.493Z,26.52
2022-08-23T10:45:06.282Z,26.71
2022-08-23T10:47:37.580Z,26.87
2022-08-23T10:50:20.459Z,26.90
2022-08-23T10:53:15.940Z,26.74
2022-08-23T10:56:05.845Z,26.89
2022-08-23T10:58:45.044Z,26.95
2022-08-23T11:01:52.303Z,27.08
2022-08-23T11:04:47.717Z,27.07
2022-08-23T11:07:34.261Z,27.25
2022-08-23T11:10:16.294Z,27.21
2022-08-23T11:13:10.718Z,27.18
2022-08-23T11:15:56.169Z,27.36
2022-08-23T11:18:28.984Z,27.37
2022-08-23T11:21:33.407Z,27.31
2022-08-23T11:24:04.773Z,27.12
2022-08-23T11:26:40.818Z,27.27
2022-08-23T11:29:28.575Z,27.31
2022-08-23T11:32:29.969Z,27.41
2022-08-23T11:35:08.836Z,27.35
2022-08-23T11:37:57.090Z,27.44
2022-08-23T11:40:49.491Z,27.59
2022-08-23T11:43:26.818Z,27.64
2022-08-23T11:45:54.206Z,27.85
2022-08-23T11:48:27.340Z,27.75
2022-08-23T11:51:15.938Z,27.70
2022-08-23T11:53:58.343Z,27.57
2022-08-23T11:56:46.368Z,27.64
2022-08-23T11:59:43.282Z,27.55
2022-08-23T12:02:40.504Z,27.63
2022-08-23T12:05:22.674Z,27.83
2022-08-23T12:07:54.825Z,28.05
2022-08-23T12:10:45.189Z,27.80
2022-08-23T12:13:17.898Z,27.84
2022-08-23T12:16:16.630Z,27.89
2022-08-23T12:18:47.677Z,28.03
2022-08-23T12:21:31.677Z,28.20
2022-08-23T12:24:03.401Z,28.22
2022-08-23T12:26:42.409Z,28.21
2022-08-23T12:29:32.776Z,28.22
2022-08-23T12:32:09.903Z,28.19
2022-08-23T12:35:00.902Z,28.06
2022-08-23T12:37:36.547Z,28.18
2022-08-23T12:40:09.277Z,28.14
2022-08-23T12:42:38.491Z,28.31
2022-08-23T12:45:05.260Z,28.43
2022-08-23T12:47:32.563Z,28.50
2022-08-23T12:50:15.047Z,28.44
2022-08-23T12:52:42.481Z,28.50
2022-08-23T12:55:18.373Z,28.41
2022-08-23T12:57:54.473Z,28.45
2022-08-23T13:00:26.048Z,28.51
2022-08-23T13:03:26.756Z,28.50
2022-08-23T13:05:55.468Z,28.62
2022-08-23T13:08:34.455Z,28.85
2022-08-23T13:11:07.774Z,28.63
2022-08-23T13:13:39.263Z,28.56
2022-08-23T13:16:27.433Z,28.62
2022-08-23T13:18:56.176Z,28.85
2022-08-23T13:21:22.873Z,28.74
2022-08-23T13:23:52.123Z,28.91
2022-08-23T13:26:29.278Z,28.63
2022-08-23T13:29:05.411Z,28.64
2022-08-23T13:31:52.416Z,28.62
2022-08-23T13:34:37.089Z,28.93
2022-08-23T13:37:19.908Z,28.98
2022-08-23T13:39:50.351Z,29.04
2022-08-23T13:42:50.991Z,28.99
2022-08-23T13:45:32.101Z,29.29
2022-08-23T13:48:10.285Z,29.45
2022-08-23T13:50:38.585Z,29.17
2022-08-23T13:53:15.570Z,29.14
2022-08-23T13:55:47.141Z,29.07
2022-08-23T13:58:24.669Z,29.04
2022-08-23T14:00:55.479Z,29.09
2022-08-23T14:03:23.367Z,29.13
2022-08-23T14:05:50.283Z,29.12
2022-08-23T14:08:17.237Z,29.03
2022-08-23T14:10:46.341Z,29.22
2022-08-23T14:13:15.705Z,29.12
2022-08-23T14:16:32.991Z,29.24
2022-08-23T14:18:30.803Z,29.06
2022-08-23T14:20:57.425Z,29.09
2022-08-23T14:23:24.113Z,28.92
2022-08-23T14:25:55.031Z,29.16
2022-08-23T14:28:24.954Z,29.11
2022-08-23T14:30:51.784Z,29.09
2022-08-23T14:33:20.324Z,29.05
2022-08-23T14:35:47.715Z,29.22
2022-08-23T14:38:15.332Z,29.13
2022-08-23T14:40:50.446Z,28.83
2022-08-23T14:43:17.163Z,28.70
2022-08-23T14:45:43.810Z,28.91
2022-08-23T14:48:11.602Z,28.77
2022-08-23T14:50:39.581Z,28.88
2022-08-23T14:53:06.898Z,28.97
2022-08-23T14:55:33.600Z,28.94
2022-08-23T14:58:00.278Z,29.05
2022-08-23T15:00:26.932Z,29.08
2022-08-23T15:02:53.783Z,29.07
2022-08-23T15:05:20.628Z,29.05
2022-08-23T15:07:47.259Z,29.08
2022-08-23T15:13:19.149Z,29.07
2022-08-23T15:15:49.093Z,29.12
2022-08-23T15:18:16.983Z,29.20
2022-08-23T15:20:45.261Z,29.31
2022-08-23T15:23:12.214Z,29.26
2022-08-23T15:25:41.984Z,29.36
2022-08-23T15:28:13.160Z,29.53
2022-08-23T15:30:41.538Z,29.61
2022-08-23T15:33:08.850Z,29.50
2022-08-23T15:35:41.305Z,29.42
2022-08-23T15:38:09.891Z,29.52
2022-08-23T15:40:36.904Z,29.74
2022-08-23T15:43:04.010Z,29.72
2022-08-23T15:45:32.298Z,29.60
2022-08-23T15:48:01.318Z,29.49
2022-08-23T15:50:32.559Z,29.47
2022-08-23T15:53:00.142Z,29.54
2022-08-23T15:55:31.090Z,29.39
2022-08-23T15:57:58.329Z,29.43
2022-08-23T16:00:25.821Z,29.39
2022-08-23T16:03:18.345Z,29.40
2022-08-23T16:05:44.163Z,29.45
2022-08-23T16:08:20.467Z,29.60
2022-08-23T16:10:47.376Z,29.56
2022-08-23T16:13:14.276Z,29.61
2022-08-23T16:15:40.861Z,29.70
2022-08-23T16:18:07.934Z,29.69
2022-08-23T16:20:34.648Z,29.54
2022-08-23T16:23:01.505Z,29.43
2022-08-23T16:25:28.645Z,29.57
2022-08-23T16:27:55.603Z,29.71
2022-08-23T16:30:23.865Z,29.82
2022-08-23T16:32:50.612Z,29.92
2022-08-23T16:35:18.335Z,29.93
2022-08-23T16:37:45.097Z,30.07
2022-08-23T16:40:12.977Z,30.16
2022-08-23T16:42:40.445Z,30.14
2022-08-23T16:45:08.207Z,30.14
2022-08-23T16:47:40.959Z,30.12
2022-08-23T16:50:09.280Z,30.15
2022-08-23T16:52:35.989Z,30.22
2022-08-23T16:55:09.210Z,30.17
2022-08-23T16:57:36.207Z,30.02
2022-08-23T17:00:06.834Z,30.09
2022-08-23T17:02:36.506Z,30.06
2022-08-23T17:05:05.683Z,30.02
2022-08-23T17:07:32.568Z,30.09
2022-08-23T17:09:59.271Z,30.11
2022-08-23T17:12:26.142Z,29.97
2022-08-23T17:14:54.755Z,29.83
2022-08-23T17:17:21.419Z,29.93
2022-08-23T17:19:48.171Z,29.91
2022-08-23T17:22:15.092Z,29.92
2022-08-23T17:24:41.692Z,29.97
2022-08-23T17:27:08.591Z,30.01
2022-08-23T17:29:42.779Z,29.90
2022-08-23T17:32:09.987Z,29.93
2022-08-23T17:34:38.883Z,29.99
2022-08-23T17:37:15.736Z,29.86
2022-08-23T17:39:42.789Z,29.76
2022-08-23T17:42:09.431Z,29.70
2022-08-23T17:44:36.132Z,29.73
2022-08-23T17:47:07.723Z,29.72
2022-08-23T17:49:34.664Z,29.78
2022-08-23T17:52:03.815Z,29.74
2022-08-23T17:54:30.525Z,29.66
2022-08-23T17:56:57.255Z,29.59
2022-08-23T17:59:23.977Z,29.59
2022-08-23T18:01:50.793Z,29.64
2022-08-23T18:04:18.123Z,29.57
2022-08-23T18:06:45.602Z,29.50
2022-08-23T18:09:12.582Z,29.35
2022-08-23T18:11:39.222Z,29.27
2022-08-23T18:14:06.111Z,29.35
2022-08-23T18:16:35.546Z,29.22
2022-08-23T18:19:05.219Z,29.02
2022-08-23T18:21:33.140Z,28.85
2022-08-23T18:23:59.852Z,28.68
2022-08-23T18:26:45.556Z,28.52
2022-08-23T18:29:14.552Z,28.38
2022-08-23T18:31:43.960Z,28.23
2022-08-23T18:34:13.110Z,28.08
2022-08-23T18:36:39.804Z,27.97
2022-08-23T18:39:08.389Z,27.91
2022-08-23T18:41:35.135Z,27.86
2022-08-23T18:44:05.658Z,27.73
2022-08-23T18:46:39.019Z,27.61
2022-08-23T18:49:08.754Z,27.61
2022-08-23T18:51:35.992Z,27.64
2022-08-23T18:54:03.171Z,27.63
2022-08-23T18:56:29.862Z,27.57
2022-08-23T18:58:56.531Z,27.48
2022-08-23T19:01:32.843Z,27.40
2022-08-23T19:04:01.848Z,27.38
2022-08-23T19:06:28.553Z,27.34
2022-08-23T19:08:55.955Z,27.28
2022-08-23T19:11:24.263Z,27.23
2022-08-23T19:13:51.196Z,27.17
2022-08-23T19:16:19.470Z,26.93
2022-08-23T19:18:49.747Z,26.96
2022-08-23T19:21:21.290Z,27.03
2022-08-23T19:23:50.388Z,27.01
2022-08-23T19:26:19.668Z,26.95
2022-08-23T19:28:46.843Z,26.84
2022-08-23T19:31:14.186Z,26.78
2022-08-23T19:33:41.521Z,26.33
2022-08-23T19:36:23.648Z,26.45
2022-08-23T19:38:56.765Z,26.56
2022-08-23T19:41:23.406Z,26.58
2022-08-23T19:43:50.018Z,26.56
2022-08-23T19:46:16.947Z,26.59
2022-08-23T19:48:45.768Z,26.59
2022-08-23T19:51:14.664Z,26.52
2022-08-23T19:53:42.272Z,26.52
2022-08-23T19:56:09.467Z,26.50
2022-08-23T19:58:38.237Z,26.49
2022-08-23T20:01:04.853Z,26.45
2022-08-23T20:03:31.580Z,26.36
2022-08-23T20:05:58.188Z,26.41
2022-08-23T20:08:25.567Z,26.20
2022-08-23T20:10:52.145Z,26.28
2022-08-23T20:13:21.714Z,26.30
2022-08-23T20:15:49.183Z,26.24
2022-08-23T20:18:18.082Z,26.13
2022-08-23T20:20:44.836Z,26.07
2022-08-23T20:23:31.028Z,26.10
2022-08-23T20:25:57.803Z,26.05
2022-08-23T20:28:26.404Z,26.01
2022-08-23T20:30:53.300Z,25.90
2022-08-23T20:33:19.958Z,25.91
2022-08-23T20:35:46.852Z,25.90
2022-08-23T20:38:33.299Z,25.99
2022-08-23T20:41:00.300Z,26.10
2022-08-23T20:43:30.048Z,26.17
2022-08-23T20:45:56.762Z,26.16
2022-08-23T20:48:23.417Z,26.14
2022-08-23T20:50:50.115Z,25.75
2022-08-23T20:53:16.992Z,25.71
2022-08-23T20:55:43.738Z,25.82
2022-08-23T20:58:10.464Z,25.89
2022-08-23T21:00:37.227Z,25.97
2022-08-23T21:03:04.151Z,25.87
2022-08-23T21:05:30.891Z,25.90
2022-08-23T21:07:57.641Z,25.84
2022-08-23T21:10:25.815Z,25.80
2022-08-23T21:12:52.768Z,25.76
2022-08-23T21:15:19.580Z,25.74
2022-08-23T21:17:46.746Z,25.75
2022-08-23T21:20:14.479Z,25.73
2022-08-23T21:22:41.363Z,25.68
2022-08-23T21:25:08.524Z,25.58
2022-08-23T21:27:35.401Z,25.55
2022-08-23T21:30:04.018Z,25.55
2022-08-23T21:32:30.779Z,25.53
2022-08-23T21:34:58.517Z,25.52
2022-08-23T21:37:25.979Z,25.49
2022-08-23T21:39:52.628Z,25.47
2022-08-23T21:42:23.498Z,25.55
2022-08-23T21:44:50.551Z,25.56
2022-08-23T21:47:17.668Z,25.37
2022-08-23T21:49:44.381Z,25.40
2022-08-23T21:52:10.980Z,25.15
2022-08-23T21:54:42.852Z,25.03
2022-08-23T21:57:10.474Z,24.97
2022-08-23T21:59:37.407Z,25.04
2022-08-23T22:02:04.411Z,25.09
2022-08-23T22:04:31.138Z,25.00
2022-08-23T22:07:00.065Z,25.01
2022-08-23T22:09:31.522Z,24.98
2022-08-23T22:12:00.304Z,24.92
2022-08-23T22:14:31.706Z,24.89
2022-08-23T22:16:59.215Z,24.81
2022-08-23T22:19:26.354Z,24.90
2022-08-23T22:21:53.264Z,24.87
2022-08-23T22:24:25.230Z,24.76
2022-08-23T22:26:53.525Z,24.66
2022-08-23T22:29:20.177Z,24.68
2022-08-23T22:31:48.224Z,24.72
2022-08-23T22:34:15.174Z,24.79
2022-08-23T22:36:41.998Z,24.82
2022-08-23T22:39:08.721Z,24.65
2022-08-23T22:41:35.477Z,24.64
2022-08-23T22:44:03.212Z,24.74
2022-08-23T22:46:31.897Z,24.81
2022-08-23T22:48:58.855Z,24.72
2022-08-23T22:51:32.856Z,24.51
2022-08-23T22:54:02.371Z,24.42
2022-08-23T22:56:32.436Z,24.38
2022-08-23T22:58:59.711Z,24.36
2022-08-23T23:01:34.341Z,24.35
2022-08-23T23:04:03.334Z,24.35
2022-08-23T23:06:30.441Z,24.38
2022-08-23T23:08:57.231Z,24.43
2022-08-23T23:11:24.590Z,24.44
2022-08-23T23:13:51.933Z,24.44
2022-08-23T23:16:22.651Z,24.45
2022-08-23T23:19:08.639Z,24.40
2022-08-23T23:21:55.766Z,24.39
2022-08-23T23:24:34.850Z,24.30
2022-08-23T23:27:02.564Z,24.23
2022-08-23T23:29:31.603Z,24.09
2022-08-23T23:31:58.794Z,24.04
2022-08-23T23:34:26.589Z,23.89
2022-08-23T23:36:56.086Z,23.69
2022-08-23T23:39:22.943Z,23.83
2022-08-23T23:41:49.527Z,23.97
2022-08-23T23:44:16.334Z,23.98
2022-08-23T23:46:56.302Z,23.93
2022-08-23T23:49:23.478Z,23.92
2022-08-23T23:51:56.324Z,23.92
2022-08-23T23:54:22.910Z,23.80
2022-08-23T23:56:51.201Z,23.65
2022-08-23T23:59:17.788Z,23.36
